sensor_id;sensor_type;location;lat;lon;timestamp;pressure;altitude;pressure_sealevel;temperature;humidity
75549;BME280;64133;56.002;37.208;2023-08-06T00:01:16;99372.04;;;21.62;64.01
75549;BME280;64133;56.002;37.208;2023-08-06T00:06:21;99374.03;;;21.36;64.62
75549;BME280;64133;56.002;37.208;2023-08-06T00:11:25;99385.38;;;21.27;65.11
75549;BME280;64133;56.002;37.208;2023-08-06T00:16:30;99383.72;;;21.26;65.13
75549;BME280;64133;56.002;37.208;2023-08-06T00:21:35;99378.57;;;21.14;65.52
75549;BME280;64133;56.002;37.208;2023-08-06T00:26:39;99380.56;;;21.16;65.42
75549;BME280;64133;56.002;37.208;2023-08-06T00:31:44;99383.48;;;21.21;65.78
75549;BME280;64133;56.002;37.208;2023-08-06T00:36:49;99385.06;;;21.37;65.45
75549;BME280;64133;56.002;37.208;2023-08-06T00:41:53;99392.86;;;21.32;65.75
75549;BME280;64133;56.002;37.208;2023-08-06T00:46:58;99384.75;;;21.36;65.90
75549;BME280;64133;56.002;37.208;2023-08-06T00:52:03;99383.23;;;21.38;65.87
75549;BME280;64133;56.002;37.208;2023-08-06T00:57:08;99379.45;;;21.43;65.81
75549;BME280;64133;56.002;37.208;2023-08-06T01:02:13;99379.39;;;21.36;65.62
75549;BME280;64133;56.002;37.208;2023-08-06T01:07:21;99390.96;;;21.04;66.69
75549;BME280;64133;56.002;37.208;2023-08-06T01:12:29;99382.89;;;21.15;66.52
75549;BME280;64133;56.002;37.208;2023-08-06T01:17:31;99377.67;;;21.18;66.35
75549;BME280;64133;56.002;37.208;2023-08-06T01:22:36;99379.05;;;21.24;66.52
75549;BME280;64133;56.002;37.208;2023-08-06T01:27:43;99385.98;;;21.12;66.63
75549;BME280;64133;56.002;37.208;2023-08-06T01:32:48;99383.44;;;21.04;67.16
75549;BME280;64133;56.002;37.208;2023-08-06T01:37:51;99390.38;;;20.98;67.34
75549;BME280;64133;56.002;37.208;2023-08-06T01:42:56;99391.28;;;21.16;66.99
75549;BME280;64133;56.002;37.208;2023-08-06T01:48:00;99400.31;;;21.15;67.15
75549;BME280;64133;56.002;37.208;2023-08-06T01:53:05;99410.66;;;21.18;67.30
75549;BME280;64133;56.002;37.208;2023-08-06T01:58:10;99403.53;;;21.04;67.79
75549;BME280;64133;56.002;37.208;2023-08-06T02:03:14;99411.16;;;21.07;67.66
75549;BME280;64133;56.002;37.208;2023-08-06T02:08:19;99411.75;;;21.13;67.71
75549;BME280;64133;56.002;37.208;2023-08-06T02:13:23;99410.00;;;21.27;67.42
75549;BME280;64133;56.002;37.208;2023-08-06T02:18:28;99421.39;;;21.07;67.82
75549;BME280;64133;56.002;37.208;2023-08-06T02:23:33;99412.38;;;21.15;67.33
75549;BME280;64133;56.002;37.208;2023-08-06T02:28:38;99414.23;;;20.93;68.24
75549;BME280;64133;56.002;37.208;2023-08-06T02:33:42;99419.99;;;21.12;68.00
75549;BME280;64133;56.002;37.208;2023-08-06T02:38:47;99420.37;;;21.08;68.08
75549;BME280;64133;56.002;37.208;2023-08-06T02:43:53;99415.05;;;21.15;67.73
75549;BME280;64133;56.002;37.208;2023-08-06T02:48:58;99415.13;;;21.32;67.47
75549;BME280;64133;56.002;37.208;2023-08-06T02:54:02;99424.56;;;21.18;67.91
75549;BME280;64133;56.002;37.208;2023-08-06T02:59:07;99416.84;;;21.19;67.95
75549;BME280;64133;56.002;37.208;2023-08-06T03:04:12;99415.13;;;21.22;67.81
75549;BME280;64133;56.002;37.208;2023-08-06T03:09:16;99416.56;;;21.46;67.38
75549;BME280;64133;56.002;37.208;2023-08-06T03:14:21;99415.05;;;21.47;67.36
75549;BME280;64133;56.002;37.208;2023-08-06T03:19:25;99416.50;;;21.50;67.41
75549;BME280;64133;56.002;37.208;2023-08-06T03:24:30;99409.95;;;21.70;66.97
75549;BME280;64133;56.002;37.208;2023-08-06T03:29:35;99414.70;;;21.57;67.25
75549;BME280;64133;56.002;37.208;2023-08-06T03:34:39;99415.52;;;21.68;66.98
75549;BME280;64133;56.002;37.208;2023-08-06T03:39:44;99416.94;;;21.99;66.39
75549;BME280;64133;56.002;37.208;2023-08-06T03:44:49;99348.55;;;21.64;66.65
75549;BME280;64133;56.002;37.208;2023-08-06T03:49:54;99409.66;;;22.27;66.04
75549;BME280;64133;56.002;37.208;2023-08-06T03:54:58;99416.66;;;22.22;65.78
75549;BME280;64133;56.002;37.208;2023-08-06T04:00:03;99422.27;;;22.51;65.45
75549;BME280;64133;56.002;37.208;2023-08-06T04:05:09;99415.73;;;22.87;64.97
75549;BME280;64133;56.002;37.208;2023-08-06T04:10:13;99414.03;;;23.10;64.00
75549;BME280;64133;56.002;37.208;2023-08-06T04:15:18;99410.22;;;23.08;63.86
75549;BME280;64133;56.002;37.208;2023-08-06T04:20:23;99405.63;;;23.55;63.32
75549;BME280;64133;56.002;37.208;2023-08-06T04:25:27;99411.98;;;23.65;63.22
75549;BME280;64133;56.002;37.208;2023-08-06T04:30:32;99411.55;;;23.74;62.79
75549;BME280;64133;56.002;37.208;2023-08-06T04:35:37;99406.47;;;23.75;62.86
75549;BME280;64133;56.002;37.208;2023-08-06T04:40:41;99410.89;;;23.92;62.18
75549;BME280;64133;56.002;37.208;2023-08-06T04:45:50;99409.98;;;23.82;62.35
75549;BME280;64133;56.002;37.208;2023-08-06T04:50:54;99411.48;;;24.07;61.70
75549;BME280;64133;56.002;37.208;2023-08-06T04:55:59;99411.55;;;24.17;61.32
75549;BME280;64133;56.002;37.208;2023-08-06T05:01:03;99405.68;;;24.40;60.78
75549;BME280;64133;56.002;37.208;2023-08-06T05:06:08;99408.49;;;24.90;59.86
75549;BME280;64133;56.002;37.208;2023-08-06T05:11:12;99407.83;;;24.63;60.07
75549;BME280;64133;56.002;37.208;2023-08-06T05:16:17;99409.75;;;24.71;59.93
75549;BME280;64133;56.002;37.208;2023-08-06T05:21:22;99398.63;;;24.93;59.75
75549;BME280;64133;56.002;37.208;2023-08-06T05:26:26;99398.89;;;25.16;59.38
75549;BME280;64133;56.002;37.208;2023-08-06T05:31:31;99396.63;;;25.72;58.18
75549;BME280;64133;56.002;37.208;2023-08-06T05:36:36;99398.77;;;25.98;57.62
75549;BME280;64133;56.002;37.208;2023-08-06T05:41:40;99398.30;;;26.47;56.85
75549;BME280;64133;56.002;37.208;2023-08-06T05:46:45;99395.09;;;26.77;56.00
75549;BME280;64133;56.002;37.208;2023-08-06T05:51:50;99394.38;;;26.61;55.99
75549;BME280;64133;56.002;37.208;2023-08-06T05:56:54;99396.27;;;27.23;54.89
75549;BME280;64133;56.002;37.208;2023-08-06T06:01:59;99397.03;;;27.00;54.97
75549;BME280;64133;56.002;37.208;2023-08-06T06:07:04;99382.97;;;27.34;54.33
75549;BME280;64133;56.002;37.208;2023-08-06T06:12:10;99385.63;;;27.66;53.70
75549;BME280;64133;56.002;37.208;2023-08-06T06:17:14;99379.11;;;27.76;53.21
75549;BME280;64133;56.002;37.208;2023-08-06T06:22:18;99377.55;;;27.78;52.91
75549;BME280;64133;56.002;37.208;2023-08-06T06:32:37;99371.23;;;28.27;51.94
75549;BME280;64133;56.002;37.208;2023-08-06T06:37:42;99379.08;;;28.26;51.82
75549;BME280;64133;56.002;37.208;2023-08-06T06:42:47;99375.44;;;28.77;50.69
75549;BME280;64133;56.002;37.208;2023-08-06T06:47:51;99368.98;;;29.10;49.87
75549;BME280;64133;56.002;37.208;2023-08-06T06:52:56;99375.16;;;28.76;50.29
75549;BME280;64133;56.002;37.208;2023-08-06T06:58:01;99373.89;;;28.65;50.21
75549;BME280;64133;56.002;37.208;2023-08-06T07:03:05;99369.00;;;28.95;49.64
75549;BME280;64133;56.002;37.208;2023-08-06T07:08:10;99376.03;;;28.79;49.42
75549;BME280;64133;56.002;37.208;2023-08-06T07:13:15;99373.59;;;29.26;48.62
75549;BME280;64133;56.002;37.208;2023-08-06T07:18:19;99371.28;;;29.35;48.33
75549;BME280;64133;56.002;37.208;2023-08-06T07:23:25;99368.98;;;29.26;48.02
75549;BME280;64133;56.002;37.208;2023-08-06T07:28:29;99369.88;;;29.32;47.67
75549;BME280;64133;56.002;37.208;2023-08-06T07:33:33;99359.23;;;29.47;47.26
75549;BME280;64133;56.002;37.208;2023-08-06T07:38:38;99357.43;;;29.70;46.83
75549;BME280;64133;56.002;37.208;2023-08-06T07:43:43;99348.62;;;29.46;46.76
75549;BME280;64133;56.002;37.208;2023-08-06T07:48:48;99354.45;;;29.35;46.22
75549;BME280;64133;56.002;37.208;2023-08-06T07:53:52;99354.42;;;29.91;45.71
75549;BME280;64133;56.002;37.208;2023-08-06T07:58:57;99351.20;;;29.72;45.44
75549;BME280;64133;56.002;37.208;2023-08-06T08:04:02;99345.11;;;29.65;45.44
75549;BME280;64133;56.002;37.208;2023-08-06T08:09:06;99347.67;;;29.93;45.01
75549;BME280;64133;56.002;37.208;2023-08-06T08:14:11;99346.65;;;29.99;44.48
75549;BME280;64133;56.002;37.208;2023-08-06T08:19:16;99341.36;;;29.88;44.14
75549;BME280;64133;56.002;37.208;2023-08-06T08:24:21;99344.63;;;30.31;43.72
75549;BME280;64133;56.002;37.208;2023-08-06T08:29:25;99331.85;;;30.12;43.49
75549;BME280;64133;56.002;37.208;2023-08-06T08:34:30;99337.83;;;30.31;43.47
75549;BME280;64133;56.002;37.208;2023-08-06T08:39:35;99334.20;;;30.77;42.87
75549;BME280;64133;56.002;37.208;2023-08-06T08:44:40;99333.66;;;30.75;42.26
75549;BME280;64133;56.002;37.208;2023-08-06T08:49:44;99323.13;;;30.84;42.36
75549;BME280;64133;56.002;37.208;2023-08-06T08:54:49;99332.19;;;30.67;42.27
75549;BME280;64133;56.002;37.208;2023-08-06T08:59:54;99320.25;;;30.41;42.06
75549;BME280;64133;56.002;37.208;2023-08-06T09:05:00;99320.64;;;30.52;41.93
75549;BME280;64133;56.002;37.208;2023-08-06T09:10:06;99315.09;;;30.69;41.73
75549;BME280;64133;56.002;37.208;2023-08-06T09:15:11;99319.14;;;30.96;41.55
75549;BME280;64133;56.002;37.208;2023-08-06T09:20:17;99313.88;;;30.85;41.12
75549;BME280;64133;56.002;37.208;2023-08-06T09:25:23;99307.47;;;31.38;40.78
75549;BME280;64133;56.002;37.208;2023-08-06T09:30:31;99314.35;;;31.48;40.66
75549;BME280;64133;56.002;37.208;2023-08-06T09:35:35;99302.78;;;31.28;41.03
75549;BME280;64133;56.002;37.208;2023-08-06T09:40:40;99299.84;;;31.38;40.64
75549;BME280;64133;56.002;37.208;2023-08-06T09:45:45;99293.84;;;31.83;40.17
75549;BME280;64133;56.002;37.208;2023-08-06T09:50:52;99291.41;;;31.99;39.84
75549;BME280;64133;56.002;37.208;2023-08-06T09:55:56;99282.13;;;31.90;39.93
75549;BME280;64133;56.002;37.208;2023-08-06T10:01:01;99279.61;;;31.81;40.10
75549;BME280;64133;56.002;37.208;2023-08-06T10:06:06;99269.69;;;32.22;39.62
75549;BME280;64133;56.002;37.208;2023-08-06T10:11:10;99267.86;;;31.73;40.21
75549;BME280;64133;56.002;37.208;2023-08-06T10:16:15;99257.52;;;31.70;40.35
75549;BME280;64133;56.002;37.208;2023-08-06T10:21:20;99248.91;;;31.98;40.02
75549;BME280;64133;56.002;37.208;2023-08-06T10:26:27;99254.27;;;31.81;40.44
75549;BME280;64133;56.002;37.208;2023-08-06T10:31:58;99244.30;;;31.36;40.85
75549;BME280;64133;56.002;37.208;2023-08-06T10:37:00;99246.78;;;30.68;41.41
75549;BME280;64133;56.002;37.208;2023-08-06T10:42:05;99242.64;;;31.33;40.06
75549;BME280;64133;56.002;37.208;2023-08-06T10:47:28;99234.15;;;31.87;39.38
75549;BME280;64133;56.002;37.208;2023-08-06T10:52:32;99234.81;;;31.51;39.74
75549;BME280;64133;56.002;37.208;2023-08-06T10:57:37;99236.88;;;31.87;39.47
75549;BME280;64133;56.002;37.208;2023-08-06T11:02:42;99231.22;;;32.21;38.95
75549;BME280;64133;56.002;37.208;2023-08-06T11:07:50;99236.17;;;32.47;38.70
75549;BME280;64133;56.002;37.208;2023-08-06T11:12:54;99229.31;;;32.19;38.55
75549;BME280;64133;56.002;37.208;2023-08-06T11:17:59;99232.58;;;32.16;38.50
75549;BME280;64133;56.002;37.208;2023-08-06T11:23:07;99221.72;;;32.52;38.12
75549;BME280;64133;56.002;37.208;2023-08-06T11:28:12;99220.35;;;32.52;38.25
75549;BME280;64133;56.002;37.208;2023-08-06T11:33:20;99222.82;;;32.41;38.31
75549;BME280;64133;56.002;37.208;2023-08-06T11:38:27;99212.70;;;32.31;38.50
75549;BME280;64133;56.002;37.208;2023-08-06T11:43:32;99209.69;;;32.15;38.92
75549;BME280;64133;56.002;37.208;2023-08-06T11:48:52;99203.95;;;32.85;38.17
75549;BME280;64133;56.002;37.208;2023-08-06T11:53:57;99205.63;;;32.78;38.00
75549;BME280;64133;56.002;37.208;2023-08-06T11:59:02;99204.41;;;33.28;37.38
75549;BME280;64133;56.002;37.208;2023-08-06T12:04:07;99200.41;;;33.05;37.78
75549;BME280;64133;56.002;37.208;2023-08-06T12:09:12;99198.23;;;32.33;38.76
75549;BME280;64133;56.002;37.208;2023-08-06T12:14:16;99192.25;;;32.64;38.08
75549;BME280;64133;56.002;37.208;2023-08-06T12:19:21;99183.52;;;32.52;38.14
75549;BME280;64133;56.002;37.208;2023-08-06T12:24:26;99177.25;;;32.67;37.89
75549;BME280;64133;56.002;37.208;2023-08-06T12:29:31;99179.98;;;32.59;37.93
75549;BME280;64133;56.002;37.208;2023-08-06T12:34:35;99170.70;;;32.55;37.98
75549;BME280;64133;56.002;37.208;2023-08-06T12:39:40;99170.40;;;32.77;37.78
75549;BME280;64133;56.002;37.208;2023-08-06T12:44:45;99171.47;;;33.01;37.56
75549;BME280;64133;56.002;37.208;2023-08-06T12:49:49;99169.34;;;32.70;37.77
75549;BME280;64133;56.002;37.208;2023-08-06T12:54:54;99169.61;;;32.28;38.24
75549;BME280;64133;56.002;37.208;2023-08-06T12:59:59;99170.87;;;31.67;39.20
75549;BME280;64133;56.002;37.208;2023-08-06T13:05:04;99160.72;;;31.47;39.57
75549;BME280;64133;56.002;37.208;2023-08-06T13:10:09;99159.80;;;32.47;38.11
75549;BME280;64133;56.002;37.208;2023-08-06T13:15:14;99157.59;;;32.67;37.99
75549;BME280;64133;56.002;37.208;2023-08-06T13:20:18;99153.19;;;32.82;37.73
75549;BME280;64133;56.002;37.208;2023-08-06T13:25:23;99147.75;;;32.76;37.69
75549;BME280;64133;56.002;37.208;2023-08-06T13:30:28;99147.45;;;33.01;37.56
75549;BME280;64133;56.002;37.208;2023-08-06T13:35:33;99140.09;;;32.81;37.33
75549;BME280;64133;56.002;37.208;2023-08-06T13:40:37;99140.11;;;32.73;37.75
75549;BME280;64133;56.002;37.208;2023-08-06T13:45:42;99143.42;;;33.53;36.89
75549;BME280;64133;56.002;37.208;2023-08-06T13:50:47;99135.11;;;33.11;37.13
75549;BME280;64133;56.002;37.208;2023-08-06T13:55:51;99137.60;;;33.00;37.34
75549;BME280;64133;56.002;37.208;2023-08-06T14:00:56;99133.52;;;33.02;37.13
75549;BME280;64133;56.002;37.208;2023-08-06T14:06:01;99127.00;;;32.96;37.25
75549;BME280;64133;56.002;37.208;2023-08-06T14:11:06;99120.50;;;32.64;37.77
75549;BME280;64133;56.002;37.208;2023-08-06T14:16:10;99123.99;;;32.85;37.35
75549;BME280;64133;56.002;37.208;2023-08-06T14:21:15;99123.84;;;33.28;36.95
75549;BME280;64133;56.002;37.208;2023-08-06T14:26:20;99120.15;;;33.01;37.20
75549;BME280;64133;56.002;37.208;2023-08-06T14:31:24;99115.72;;;33.15;37.10
75549;BME280;64133;56.002;37.208;2023-08-06T14:36:29;99111.81;;;33.32;37.03
75549;BME280;64133;56.002;37.208;2023-08-06T14:41:34;99114.87;;;33.74;36.59
75549;BME280;64133;56.002;37.208;2023-08-06T14:46:38;99107.13;;;33.45;37.22
75549;BME280;64133;56.002;37.208;2023-08-06T14:51:43;99108.81;;;33.77;37.14
75549;BME280;64133;56.002;37.208;2023-08-06T14:56:48;99110.30;;;33.60;37.27
75549;BME280;64133;56.002;37.208;2023-08-06T15:01:52;99106.00;;;33.43;37.76
75549;BME280;64133;56.002;37.208;2023-08-06T15:06:57;99105.00;;;33.79;37.53
75549;BME280;64133;56.002;37.208;2023-08-06T15:12:02;99110.27;;;33.67;37.72
75549;BME280;64133;56.002;37.208;2023-08-06T15:17:06;99112.09;;;33.80;37.74
75549;BME280;64133;56.002;37.208;2023-08-06T15:22:11;99102.48;;;34.53;37.36
75549;BME280;64133;56.002;37.208;2023-08-06T15:27:16;99101.22;;;34.38;37.31
75549;BME280;64133;56.002;37.208;2023-08-06T15:32:21;99099.44;;;34.79;36.90
75549;BME280;64133;56.002;37.208;2023-08-06T15:37:26;99100.45;;;35.31;36.33
75549;BME280;64133;56.002;37.208;2023-08-06T15:42:30;99103.11;;;35.17;35.90
75549;BME280;64133;56.002;37.208;2023-08-06T15:47:35;99097.46;;;35.51;35.12
75549;BME280;64133;56.002;37.208;2023-08-06T15:52:40;99098.39;;;36.61;33.39
75549;BME280;64133;56.002;37.208;2023-08-06T15:57:45;99099.63;;;38.18;31.13
75549;BME280;64133;56.002;37.208;2023-08-06T16:02:49;99097.60;;;39.12;29.40
75549;BME280;64133;56.002;37.208;2023-08-06T16:07:54;99092.59;;;39.14;28.63
75549;BME280;64133;56.002;37.208;2023-08-06T16:12:59;99095.05;;;38.76;29.10
75549;BME280;64133;56.002;37.208;2023-08-06T16:18:03;99097.74;;;39.53;28.10
75549;BME280;64133;56.002;37.208;2023-08-06T16:23:08;99098.74;;;39.11;28.36
75549;BME280;64133;56.002;37.208;2023-08-06T16:28:19;99091.06;;;35.37;32.30
75549;BME280;64133;56.002;37.208;2023-08-06T16:33:24;99094.34;;;32.50;36.75
75549;BME280;64133;56.002;37.208;2023-08-06T16:38:28;99092.58;;;31.26;38.80
75549;BME280;64133;56.002;37.208;2023-08-06T16:43:33;99091.09;;;30.93;39.47
75549;BME280;64133;56.002;37.208;2023-08-06T16:48:38;99100.80;;;30.74;39.91
75549;BME280;64133;56.002;37.208;2023-08-06T16:53:42;99106.79;;;30.36;40.57
75549;BME280;64133;56.002;37.208;2023-08-06T16:58:48;99106.57;;;29.78;41.57
75549;BME280;64133;56.002;37.208;2023-08-06T17:03:52;99105.27;;;29.57;42.16
75549;BME280;64133;56.002;37.208;2023-08-06T17:08:57;99110.20;;;29.16;42.99
75549;BME280;64133;56.002;37.208;2023-08-06T17:14:02;99108.08;;;28.96;43.45
75549;BME280;64133;56.002;37.208;2023-08-06T17:19:07;99106.50;;;28.61;44.19
75549;BME280;64133;56.002;37.208;2023-08-06T17:24:11;99109.95;;;28.57;44.47
75549;BME280;64133;56.002;37.208;2023-08-06T17:29:16;99116.13;;;28.52;44.71
75549;BME280;64133;56.002;37.208;2023-08-06T17:34:21;99114.25;;;28.36;45.10
75549;BME280;64133;56.002;37.208;2023-08-06T17:39:26;99104.80;;;28.21;45.52
75549;BME280;64133;56.002;37.208;2023-08-06T17:44:31;99108.02;;;27.87;46.35
75549;BME280;64133;56.002;37.208;2023-08-06T17:49:35;99109.17;;;27.91;46.43
75549;BME280;64133;56.002;37.208;2023-08-06T17:54:40;99116.73;;;27.75;46.84
75549;BME280;64133;56.002;37.208;2023-08-06T17:59:47;99110.22;;;27.73;47.13
75549;BME280;64133;56.002;37.208;2023-08-06T18:04:54;99108.41;;;27.50;47.60
75549;BME280;64133;56.002;37.208;2023-08-06T18:09:59;99113.54;;;27.35;48.13
75549;BME280;64133;56.002;37.208;2023-08-06T18:15:05;99110.14;;;27.14;48.67
75549;BME280;64133;56.002;37.208;2023-08-06T18:20:10;99104.44;;;27.01;49.04
75549;BME280;64133;56.002;37.208;2023-08-06T18:25:15;99103.12;;;27.03;49.19
75549;BME280;64133;56.002;37.208;2023-08-06T18:30:20;99104.42;;;26.75;49.87
75549;BME280;64133;56.002;37.208;2023-08-06T18:35:25;99101.19;;;26.75;49.97
75549;BME280;64133;56.002;37.208;2023-08-06T18:40:30;99102.80;;;26.62;50.27
75549;BME280;64133;56.002;37.208;2023-08-06T18:45:34;99097.99;;;26.52;50.49
75549;BME280;64133;56.002;37.208;2023-08-06T18:50:40;99104.23;;;26.32;51.09
75549;BME280;64133;56.002;37.208;2023-08-06T18:55:48;99098.77;;;26.29;51.27
75549;BME280;64133;56.002;37.208;2023-08-06T19:00:56;99098.41;;;26.14;51.70
75549;BME280;64133;56.002;37.208;2023-08-06T19:06:01;99096.08;;;26.18;51.54
75549;BME280;64133;56.002;37.208;2023-08-06T19:11:06;99094.95;;;26.04;51.96
75549;BME280;64133;56.002;37.208;2023-08-06T19:16:11;99100.77;;;25.90;52.28
75549;BME280;64133;56.002;37.208;2023-08-06T19:21:15;99101.47;;;25.85;52.49
75549;BME280;64133;56.002;37.208;2023-08-06T19:26:20;99096.93;;;25.76;52.69
75549;BME280;64133;56.002;37.208;2023-08-06T19:31:25;99099.19;;;25.70;52.86
75549;BME280;64133;56.002;37.208;2023-08-06T19:36:30;99097.88;;;25.73;52.98
75549;BME280;64133;56.002;37.208;2023-08-06T19:41:34;99099.53;;;25.53;53.51
75549;BME280;64133;56.002;37.208;2023-08-06T19:46:39;99094.17;;;25.44;53.74
75549;BME280;64133;56.002;37.208;2023-08-06T19:51:44;99090.59;;;25.31;54.08
75549;BME280;64133;56.002;37.208;2023-08-06T19:56:48;99091.19;;;25.43;53.98
75549;BME280;64133;56.002;37.208;2023-08-06T20:01:53;99036.55;;;24.90;54.48
75549;BME280;64133;56.002;37.208;2023-08-06T20:06:58;99088.21;;;25.05;55.10
75549;BME280;64133;56.002;37.208;2023-08-06T20:12:02;99086.34;;;24.96;55.36
75549;BME280;64133;56.002;37.208;2023-08-06T20:17:07;99095.02;;;24.89;55.67
75549;BME280;64133;56.002;37.208;2023-08-06T20:22:13;99095.03;;;24.80;56.03
75549;BME280;64133;56.002;37.208;2023-08-06T20:27:18;99087.48;;;24.70;56.30
75549;BME280;64133;56.002;37.208;2023-08-06T20:32:23;99078.95;;;24.64;56.82
75549;BME280;64133;56.002;37.208;2023-08-06T20:37:27;99084.11;;;24.56;57.15
75549;BME280;64133;56.002;37.208;2023-08-06T20:42:32;99083.95;;;24.51;57.37
75549;BME280;64133;56.002;37.208;2023-08-06T20:47:37;99084.63;;;24.47;57.72
75549;BME280;64133;56.002;37.208;2023-08-06T20:52:41;99083.92;;;24.42;57.93
75549;BME280;64133;56.002;37.208;2023-08-06T20:57:46;99086.55;;;24.40;58.08
75549;BME280;64133;56.002;37.208;2023-08-06T21:02:51;99090.17;;;24.36;58.26
75549;BME280;64133;56.002;37.208;2023-08-06T21:07:55;99085.59;;;24.27;58.57
75549;BME280;64133;56.002;37.208;2023-08-06T21:13:00;99057.70;;;23.97;58.95
75549;BME280;64133;56.002;37.208;2023-08-06T21:18:05;99090.50;;;24.12;59.17
75549;BME280;64133;56.002;37.208;2023-08-06T21:23:10;99081.42;;;24.06;59.49
75549;BME280;64133;56.002;37.208;2023-08-06T21:28:14;99082.16;;;23.95;59.74
75549;BME280;64133;56.002;37.208;2023-08-06T21:33:19;99082.72;;;23.88;60.09
75549;BME280;64133;56.002;37.208;2023-08-06T21:38:24;99090.06;;;23.74;60.69
75549;BME280;64133;56.002;37.208;2023-08-06T21:43:28;99098.91;;;23.59;61.10
75549;BME280;64133;56.002;37.208;2023-08-06T21:48:34;99093.80;;;23.73;61.03
75549;BME280;64133;56.002;37.208;2023-08-06T21:53:38;99096.88;;;23.54;61.45
75549;BME280;64133;56.002;37.208;2023-08-06T21:58:43;99094.87;;;23.59;61.50
75549;BME280;64133;56.002;37.208;2023-08-06T22:03:47;99097.00;;;23.50;61.69
75549;BME280;64133;56.002;37.208;2023-08-06T22:08:52;99097.98;;;23.47;61.77
75549;BME280;64133;56.002;37.208;2023-08-06T22:13:57;99096.18;;;23.50;61.90
75549;BME280;64133;56.002;37.208;2023-08-06T22:19:02;99098.37;;;23.28;62.60
75549;BME280;64133;56.002;37.208;2023-08-06T22:24:07;99090.98;;;23.39;62.47
75549;BME280;64133;56.002;37.208;2023-08-06T22:29:12;99089.70;;;23.42;62.28
75549;BME280;64133;56.002;37.208;2023-08-06T22:34:16;99089.70;;;23.42;62.40
75549;BME280;64133;56.002;37.208;2023-08-06T22:39:21;99082.04;;;23.45;62.37
75549;BME280;64133;56.002;37.208;2023-08-06T22:44:26;99085.77;;;23.44;62.40
75549;BME280;64133;56.002;37.208;2023-08-06T22:49:30;99084.16;;;23.37;62.68
75549;BME280;64133;56.002;37.208;2023-08-06T22:54:36;99086.08;;;23.29;63.00
75549;BME280;64133;56.002;37.208;2023-08-06T22:59:40;99082.46;;;23.26;63.21
75549;BME280;64133;56.002;37.208;2023-08-06T23:04:44;99079.09;;;23.15;63.32
75549;BME280;64133;56.002;37.208;2023-08-06T23:09:49;99080.77;;;23.16;63.49
75549;BME280;64133;56.002;37.208;2023-08-06T23:14:54;99080.72;;;23.23;63.38
75549;BME280;64133;56.002;37.208;2023-08-06T23:19:58;99075.05;;;23.22;63.35
75549;BME280;64133;56.002;37.208;2023-08-06T23:25:04;99071.73;;;22.97;63.94
75549;BME280;64133;56.002;37.208;2023-08-06T23:30:09;99069.46;;;22.94;64.12
75549;BME280;64133;56.002;37.208;2023-08-06T23:35:14;99069.39;;;22.92;64.34
75549;BME280;64133;56.002;37.208;2023-08-06T23:40:19;99068.52;;;22.69;64.91
75549;BME280;64133;56.002;37.208;2023-08-06T23:45:24;99069.89;;;22.55;65.61
75549;BME280;64133;56.002;37.208;2023-08-06T23:50:29;99068.55;;;22.49;65.72
75549;BME280;64133;56.002;37.208;2023-08-06T23:55:34;99066.36;;;22.55;65.73
